KGFL/GFL METAR and TAF weather

Enter ICAO airport designator
Station Type Date Time Source
KGFL METAR 2022/06/27 07:53 UTC NOAA

KGFL 270753Z AUTO 21006KT 10SM SCT043 BKN110 23/16 A2983 RMK AO2 SLP098 T02330156


Station Type Date Time Source
KGFL Decoded METAR 2022/06/27 07:53 UTC NOAA

FLOYD BENNETT MEMORIAL AIRPORT , NY, United States (KGFL) 43-20N 073-37W 103M
Jun 27, 2022 - 03:53 AM EDT / 2022.06.27 0753 UTC
Wind: from the SSW (210 degrees) at 7 MPH (6 KT):0
Visibility: 10 mile(s):0
Sky conditions: mostly cloudy
Temperature: 73.9 F (23.3 C)
Dew Point: 60.1 F (15.6 C)
Relative Humidity: 61%
Pressure (altimeter): 29.83 in. Hg (1010 hPa)
ob: KGFL 270753Z AUTO 21006KT 10SM SCT043 BKN110 23/16 A2983 RMK AO2 SLP098 T02330156
cycle: 8

Station Type Date Time Source
KGFL TAF 2022/06/27 06:33 UTC NOAA

TAF KGFL 270531Z 2706/2806 19007KT P6SM SCT050 BKN080
FM270900 19009KT P6SM SCT025 OVC050
TEMPO 2709/2711 4SM -SHRA BKN025 OVC050
FM271100 20007KT P6SM BKN015 OVC025
TEMPO 2711/2715 3SM -SHRA SCT007 OVC015
FM271500 22007KT P6SM BKN035 BKN050
FM271800 25010G18KT P6SM SCT050
FM280000 26006KT P6SM SCT050
FM280300 27005KT P6SM SCT050 SCT100

Example: see airport list